EGQL/ADX METAR and TAF weather

Enter ICAO airport designator
Station Type Date Time Source
EGQL METAR 2018/07/21 10:50 UTC NOAA

EGQL 211050Z 11006KT 9000 HZ SCT016 SCT034 BKN130 17/14 Q1012 WHT


Station Type Date Time Source
EGQL Decoded METAR 2018/07/21 10:50 UTC NOAA

Leuchars, United Kingdom (EGQL) 56-23N 002-52W 0M
Jul 21, 2018 - 06:50 AM EDT / 2018.07.21 1050 UTC
Wind: from the ESE (110 degrees) at 7 MPH (6 KT):0
Visibility: 5 mile(s):0
Sky conditions: mostly cloudy
Weather: haze
Temperature: 62 F (17 C)
Dew Point: 57 F (14 C)
Relative Humidity: 82%
Pressure (altimeter): 29.88 in. Hg (1012 hPa)
ob: EGQL 211050Z 11006KT 9000 HZ SCT016 SCT034 BKN130 17/14 Q1012 WHT
cycle: 11

Station Type Date Time Source
EGQL TAF 2011/07/27 06:03 UTC NOAA

TAF TAF
AMD EGQL 270424Z 2706/2724 14005KT 9999 BKN020 PROB30
TEMPO 2706/2708 SCT012
BECMG 2708/2710 SCT025


Example: see airport list